sensor_id;sensor_type;location;lat;lon;timestamp;P1;durP1;ratioP1;P2;durP2;ratioP2
59530;SDS011;45349;48.692;8.186;2022-07-29T00:01:57;3.80;;;3.27;;
59530;SDS011;45349;48.692;8.186;2022-07-29T00:04:23;4.23;;;3.00;;
59530;SDS011;45349;48.692;8.186;2022-07-29T00:06:50;3.37;;;2.80;;
59530;SDS011;45349;48.692;8.186;2022-07-29T00:09:17;3.83;;;3.10;;
59530;SDS011;45349;48.692;8.186;2022-07-29T00:11:45;6.37;;;3.53;;
59530;SDS011;45349;48.692;8.186;2022-07-29T00:14:12;8.77;;;4.67;;
59530;SDS011;45349;48.692;8.186;2022-07-29T00:16:39;5.93;;;4.30;;
59530;SDS011;45349;48.692;8.186;2022-07-29T00:19:05;5.90;;;4.00;;
59530;SDS011;45349;48.692;8.186;2022-07-29T00:21:32;4.57;;;4.10;;
59530;SDS011;45349;48.692;8.186;2022-07-29T00:23:59;6.57;;;4.17;;
59530;SDS011;45349;48.692;8.186;2022-07-29T00:26:26;5.30;;;4.03;;
59530;SDS011;45349;48.692;8.186;2022-07-29T00:28:58;7.50;;;4.40;;
59530;SDS011;45349;48.692;8.186;2022-07-29T00:31:25;4.63;;;4.00;;
59530;SDS011;45349;48.692;8.186;2022-07-29T00:33:53;5.17;;;4.20;;
59530;SDS011;45349;48.692;8.186;2022-07-29T00:36:19;5.17;;;4.13;;
59530;SDS011;45349;48.692;8.186;2022-07-29T00:38:46;5.37;;;4.10;;
59530;SDS011;45349;48.692;8.186;2022-07-29T00:41:12;8.77;;;4.30;;
59530;SDS011;45349;48.692;8.186;2022-07-29T00:43:39;6.30;;;4.20;;
59530;SDS011;45349;48.692;8.186;2022-07-29T00:46:07;5.43;;;4.30;;
59530;SDS011;45349;48.692;8.186;2022-07-29T00:48:34;4.77;;;4.17;;
59530;SDS011;45349;48.692;8.186;2022-07-29T00:51:01;5.30;;;4.03;;
59530;SDS011;45349;48.692;8.186;2022-07-29T00:53:48;4.33;;;3.60;;
59530;SDS011;45349;48.692;8.186;2022-07-29T00:56:16;8.23;;;4.43;;
59530;SDS011;45349;48.692;8.186;2022-07-29T00:58:42;7.93;;;4.53;;
59530;SDS011;45349;48.692;8.186;2022-07-29T01:01:11;6.07;;;4.53;;
59530;SDS011;45349;48.692;8.186;2022-07-29T01:03:38;6.03;;;4.73;;
59530;SDS011;45349;48.692;8.186;2022-07-29T01:06:05;8.87;;;4.47;;
59530;SDS011;45349;48.692;8.186;2022-07-29T01:08:31;9.53;;;4.60;;
59530;SDS011;45349;48.692;8.186;2022-07-29T01:10:59;9.00;;;4.83;;
59530;SDS011;45349;48.692;8.186;2022-07-29T01:13:27;6.53;;;4.37;;
59530;SDS011;45349;48.692;8.186;2022-07-29T01:15:58;5.50;;;4.50;;
59530;SDS011;45349;48.692;8.186;2022-07-29T01:18:31;7.63;;;4.67;;
59530;SDS011;45349;48.692;8.186;2022-07-29T01:21:19;5.17;;;4.33;;
59530;SDS011;45349;48.692;8.186;2022-07-29T01:24:11;5.53;;;4.67;;
59530;SDS011;45349;48.692;8.186;2022-07-29T01:26:45;5.10;;;4.57;;
59530;SDS011;45349;48.692;8.186;2022-07-29T01:29:19;5.50;;;4.90;;
59530;SDS011;45349;48.692;8.186;2022-07-29T01:31:54;8.13;;;5.00;;
59530;SDS011;45349;48.692;8.186;2022-07-29T01:34:27;7.07;;;4.68;;
59530;SDS011;45349;48.692;8.186;2022-07-29T01:36:59;9.17;;;5.30;;
59530;SDS011;45349;48.692;8.186;2022-07-29T01:39:35;7.17;;;4.97;;
59530;SDS011;45349;48.692;8.186;2022-07-29T01:42:06;9.47;;;5.47;;
59530;SDS011;45349;48.692;8.186;2022-07-29T01:44:41;7.47;;;5.00;;
59530;SDS011;45349;48.692;8.186;2022-07-29T01:47:17;7.17;;;5.13;;
59530;SDS011;45349;48.692;8.186;2022-07-29T01:49:49;7.23;;;4.93;;
59530;SDS011;45349;48.692;8.186;2022-07-29T01:52:20;9.33;;;5.07;;
59530;SDS011;45349;48.692;8.186;2022-07-29T01:54:52;5.87;;;4.80;;
59530;SDS011;45349;48.692;8.186;2022-07-29T01:57:25;5.23;;;4.73;;
59530;SDS011;45349;48.692;8.186;2022-07-29T01:59:56;5.97;;;4.90;;
59530;SDS011;45349;48.692;8.186;2022-07-29T02:02:24;7.43;;;5.87;;
59530;SDS011;45349;48.692;8.186;2022-07-29T02:04:54;7.67;;;5.00;;
59530;SDS011;45349;48.692;8.186;2022-07-29T02:07:22;7.37;;;5.20;;
59530;SDS011;45349;48.692;8.186;2022-07-29T02:10:12;5.60;;;5.00;;
59530;SDS011;45349;48.692;8.186;2022-07-29T02:12:41;5.83;;;5.23;;
59530;SDS011;45349;48.692;8.186;2022-07-29T02:15:11;6.20;;;5.60;;
59530;SDS011;45349;48.692;8.186;2022-07-29T02:17:41;7.30;;;5.40;;
59530;SDS011;45349;48.692;8.186;2022-07-29T02:20:10;6.43;;;5.20;;
59530;SDS011;45349;48.692;8.186;2022-07-29T02:22:39;6.13;;;5.53;;
59530;SDS011;45349;48.692;8.186;2022-07-29T02:25:07;5.80;;;5.10;;
59530;SDS011;45349;48.692;8.186;2022-07-29T02:27:35;7.23;;;5.30;;
59530;SDS011;45349;48.692;8.186;2022-07-29T02:30:05;5.97;;;5.37;;
59530;SDS011;45349;48.692;8.186;2022-07-29T02:32:36;5.33;;;4.83;;
59530;SDS011;45349;48.692;8.186;2022-07-29T02:35:06;7.77;;;5.23;;
59530;SDS011;45349;48.692;8.186;2022-07-29T02:37:35;7.13;;;5.67;;
59530;SDS011;45349;48.692;8.186;2022-07-29T02:40:03;5.87;;;5.27;;
59530;SDS011;45349;48.692;8.186;2022-07-29T02:42:32;6.33;;;5.47;;
59530;SDS011;45349;48.692;8.186;2022-07-29T02:45:03;7.50;;;5.20;;
59530;SDS011;45349;48.692;8.186;2022-07-29T02:47:31;6.20;;;5.27;;
59530;SDS011;45349;48.692;8.186;2022-07-29T02:50:04;6.77;;;5.03;;
59530;SDS011;45349;48.692;8.186;2022-07-29T02:52:37;6.63;;;5.00;;
59530;SDS011;45349;48.692;8.186;2022-07-29T02:55:07;7.37;;;5.37;;
59530;SDS011;45349;48.692;8.186;2022-07-29T02:57:41;9.63;;;5.90;;
59530;SDS011;45349;48.692;8.186;2022-07-29T03:00:11;6.43;;;5.53;;
59530;SDS011;45349;48.692;8.186;2022-07-29T03:02:39;6.37;;;5.20;;
59530;SDS011;45349;48.692;8.186;2022-07-29T03:05:12;7.07;;;5.80;;
59530;SDS011;45349;48.692;8.186;2022-07-29T03:07:43;10.93;;;5.90;;
59530;SDS011;45349;48.692;8.186;2022-07-29T03:10:19;7.50;;;5.57;;
59530;SDS011;45349;48.692;8.186;2022-07-29T03:12:47;8.30;;;5.47;;
59530;SDS011;45349;48.692;8.186;2022-07-29T03:15:14;7.23;;;6.00;;
59530;SDS011;45349;48.692;8.186;2022-07-29T03:17:42;6.83;;;6.10;;
59530;SDS011;45349;48.692;8.186;2022-07-29T03:20:11;7.67;;;6.13;;
59530;SDS011;45349;48.692;8.186;2022-07-29T03:22:39;6.77;;;6.10;;
59530;SDS011;45349;48.692;8.186;2022-07-29T03:25:09;6.70;;;5.93;;
59530;SDS011;45349;48.692;8.186;2022-07-29T03:27:36;7.37;;;5.70;;
59530;SDS011;45349;48.692;8.186;2022-07-29T03:30:03;8.37;;;5.80;;
59530;SDS011;45349;48.692;8.186;2022-07-29T03:32:30;7.87;;;5.80;;
59530;SDS011;45349;48.692;8.186;2022-07-29T03:34:57;7.83;;;6.23;;
59530;SDS011;45349;48.692;8.186;2022-07-29T03:37:25;7.00;;;6.30;;
59530;SDS011;45349;48.692;8.186;2022-07-29T03:39:53;8.67;;;6.23;;
59530;SDS011;45349;48.692;8.186;2022-07-29T03:42:23;6.77;;;5.53;;
59530;SDS011;45349;48.692;8.186;2022-07-29T03:44:53;7.90;;;5.70;;
59530;SDS011;45349;48.692;8.186;2022-07-29T03:47:23;7.67;;;5.90;;
59530;SDS011;45349;48.692;8.186;2022-07-29T03:49:52;8.80;;;5.83;;
59530;SDS011;45349;48.692;8.186;2022-07-29T03:52:22;6.87;;;5.43;;
59530;SDS011;45349;48.692;8.186;2022-07-29T03:54:51;8.13;;;5.70;;
59530;SDS011;45349;48.692;8.186;2022-07-29T03:57:19;6.40;;;5.80;;
59530;SDS011;45349;48.692;8.186;2022-07-29T03:59:50;8.40;;;6.30;;
59530;SDS011;45349;48.692;8.186;2022-07-29T04:02:17;6.43;;;5.80;;
59530;SDS011;45349;48.692;8.186;2022-07-29T04:04:45;6.30;;;5.70;;
59530;SDS011;45349;48.692;8.186;2022-07-29T04:07:12;6.20;;;5.60;;
59530;SDS011;45349;48.692;8.186;2022-07-29T04:09:39;9.87;;;6.93;;
59530;SDS011;45349;48.692;8.186;2022-07-29T04:12:07;6.43;;;5.30;;
59530;SDS011;45349;48.692;8.186;2022-07-29T04:14:35;7.40;;;6.07;;
59530;SDS011;45349;48.692;8.186;2022-07-29T04:17:02;8.13;;;5.37;;
59530;SDS011;45349;48.692;8.186;2022-07-29T04:19:30;6.80;;;5.87;;
59530;SDS011;45349;48.692;8.186;2022-07-29T04:21:58;6.10;;;5.50;;
59530;SDS011;45349;48.692;8.186;2022-07-29T04:24:25;5.73;;;5.10;;
59530;SDS011;45349;48.692;8.186;2022-07-29T04:26:52;6.87;;;5.40;;
59530;SDS011;45349;48.692;8.186;2022-07-29T04:29:20;6.23;;;5.63;;
59530;SDS011;45349;48.692;8.186;2022-07-29T04:31:47;6.43;;;5.57;;
59530;SDS011;45349;48.692;8.186;2022-07-29T04:34:14;7.70;;;5.30;;
59530;SDS011;45349;48.692;8.186;2022-07-29T04:36:41;6.00;;;5.40;;
59530;SDS011;45349;48.692;8.186;2022-07-29T04:39:07;6.53;;;5.20;;
59530;SDS011;45349;48.692;8.186;2022-07-29T04:41:35;5.60;;;5.10;;
59530;SDS011;45349;48.692;8.186;2022-07-29T04:44:02;6.80;;;5.40;;
59530;SDS011;45349;48.692;8.186;2022-07-29T04:46:32;6.17;;;5.53;;
59530;SDS011;45349;48.692;8.186;2022-07-29T04:48:58;9.20;;;5.13;;
59530;SDS011;45349;48.692;8.186;2022-07-29T04:51:25;6.60;;;5.77;;
59530;SDS011;45349;48.692;8.186;2022-07-29T04:53:52;6.20;;;5.60;;
59530;SDS011;45349;48.692;8.186;2022-07-29T04:56:19;6.57;;;5.87;;
59530;SDS011;45349;48.692;8.186;2022-07-29T04:58:45;7.27;;;5.27;;
59530;SDS011;45349;48.692;8.186;2022-07-29T05:01:12;11.43;;;5.60;;
59530;SDS011;45349;48.692;8.186;2022-07-29T05:03:41;7.27;;;5.70;;
59530;SDS011;45349;48.692;8.186;2022-07-29T05:06:09;5.90;;;5.30;;
59530;SDS011;45349;48.692;8.186;2022-07-29T05:08:35;7.60;;;5.77;;
59530;SDS011;45349;48.692;8.186;2022-07-29T05:11:03;8.70;;;5.57;;
59530;SDS011;45349;48.692;8.186;2022-07-29T05:13:30;7.67;;;5.63;;
59530;SDS011;45349;48.692;8.186;2022-07-29T05:15:56;8.67;;;5.17;;
59530;SDS011;45349;48.692;8.186;2022-07-29T05:18:24;9.23;;;5.50;;
59530;SDS011;45349;48.692;8.186;2022-07-29T05:20:52;6.73;;;5.83;;
59530;SDS011;45349;48.692;8.186;2022-07-29T05:23:19;6.63;;;5.90;;
59530;SDS011;45349;48.692;8.186;2022-07-29T05:25:46;9.70;;;6.13;;
59530;SDS011;45349;48.692;8.186;2022-07-29T05:28:12;7.00;;;6.30;;
59530;SDS011;45349;48.692;8.186;2022-07-29T05:30:40;8.90;;;6.30;;
59530;SDS011;45349;48.692;8.186;2022-07-29T05:33:25;13.33;;;6.50;;
59530;SDS011;45349;48.692;8.186;2022-07-29T05:35:53;9.77;;;7.65;;
59530;SDS011;45349;48.692;8.186;2022-07-29T05:38:20;8.83;;;7.47;;
59530;SDS011;45349;48.692;8.186;2022-07-29T05:40:47;10.27;;;8.67;;
59530;SDS011;45349;48.692;8.186;2022-07-29T05:43:14;9.23;;;8.07;;
59530;SDS011;45349;48.692;8.186;2022-07-29T05:45:40;9.20;;;7.77;;
59530;SDS011;45349;48.692;8.186;2022-07-29T05:48:07;10.03;;;7.53;;
59530;SDS011;45349;48.692;8.186;2022-07-29T05:50:34;9.60;;;7.50;;
59530;SDS011;45349;48.692;8.186;2022-07-29T05:53:02;9.07;;;6.83;;
59530;SDS011;45349;48.692;8.186;2022-07-29T05:55:29;7.87;;;7.17;;
59530;SDS011;45349;48.692;8.186;2022-07-29T05:57:56;7.83;;;6.40;;
59530;SDS011;45349;48.692;8.186;2022-07-29T06:00:23;8.00;;;6.13;;
59530;SDS011;45349;48.692;8.186;2022-07-29T06:02:49;11.23;;;7.23;;
59530;SDS011;45349;48.692;8.186;2022-07-29T06:05:16;9.27;;;5.90;;
59530;SDS011;45349;48.692;8.186;2022-07-29T06:07:43;7.03;;;6.27;;
59530;SDS011;45349;48.692;8.186;2022-07-29T06:10:12;6.77;;;6.07;;
59530;SDS011;45349;48.692;8.186;2022-07-29T06:12:38;10.70;;;6.30;;
59530;SDS011;45349;48.692;8.186;2022-07-29T06:15:05;7.47;;;6.27;;
59530;SDS011;45349;48.692;8.186;2022-07-29T06:17:32;9.47;;;6.57;;
59530;SDS011;45349;48.692;8.186;2022-07-29T06:19:59;9.47;;;5.53;;
59530;SDS011;45349;48.692;8.186;2022-07-29T06:22:26;6.90;;;5.77;;
59530;SDS011;45349;48.692;8.186;2022-07-29T06:24:54;8.73;;;5.93;;
59530;SDS011;45349;48.692;8.186;2022-07-29T06:27:22;7.50;;;5.80;;
59530;SDS011;45349;48.692;8.186;2022-07-29T06:30:07;6.77;;;5.67;;
59530;SDS011;45349;48.692;8.186;2022-07-29T06:32:35;7.13;;;6.33;;
59530;SDS011;45349;48.692;8.186;2022-07-29T06:35:02;7.13;;;6.17;;
59530;SDS011;45349;48.692;8.186;2022-07-29T06:37:29;6.37;;;5.73;;
59530;SDS011;45349;48.692;8.186;2022-07-29T06:39:56;9.80;;;5.43;;
59530;SDS011;45349;48.692;8.186;2022-07-29T06:42:38;8.57;;;5.37;;
59530;SDS011;45349;48.692;8.186;2022-07-29T06:45:08;6.63;;;5.67;;
59530;SDS011;45349;48.692;8.186;2022-07-29T06:47:36;9.30;;;5.53;;
59530;SDS011;45349;48.692;8.186;2022-07-29T06:50:04;8.00;;;4.63;;
59530;SDS011;45349;48.692;8.186;2022-07-29T06:52:31;7.87;;;4.33;;
59530;SDS011;45349;48.692;8.186;2022-07-29T06:54:58;6.03;;;4.60;;
59530;SDS011;45349;48.692;8.186;2022-07-29T06:57:24;5.80;;;4.87;;
59530;SDS011;45349;48.692;8.186;2022-07-29T06:59:52;8.67;;;4.17;;
59530;SDS011;45349;48.692;8.186;2022-07-29T07:02:19;8.00;;;3.87;;
59530;SDS011;45349;48.692;8.186;2022-07-29T07:04:46;7.67;;;4.27;;
59530;SDS011;45349;48.692;8.186;2022-07-29T07:07:13;9.40;;;4.17;;
59530;SDS011;45349;48.692;8.186;2022-07-29T07:09:40;5.43;;;3.63;;
59530;SDS011;45349;48.692;8.186;2022-07-29T07:12:07;6.90;;;3.90;;
59530;SDS011;45349;48.692;8.186;2022-07-29T07:14:34;5.10;;;3.97;;
59530;SDS011;45349;48.692;8.186;2022-07-29T07:17:02;10.60;;;4.40;;
59530;SDS011;45349;48.692;8.186;2022-07-29T07:19:29;7.27;;;4.73;;
59530;SDS011;45349;48.692;8.186;2022-07-29T07:21:56;9.93;;;4.20;;
59530;SDS011;45349;48.692;8.186;2022-07-29T07:24:23;7.67;;;4.10;;
59530;SDS011;45349;48.692;8.186;2022-07-29T07:26:50;5.87;;;4.10;;
59530;SDS011;45349;48.692;8.186;2022-07-29T07:29:17;6.47;;;4.30;;
59530;SDS011;45349;48.692;8.186;2022-07-29T07:31:44;4.27;;;3.43;;
59530;SDS011;45349;48.692;8.186;2022-07-29T07:34:12;6.03;;;3.90;;
59530;SDS011;45349;48.692;8.186;2022-07-29T07:36:38;8.23;;;3.70;;
59530;SDS011;45349;48.692;8.186;2022-07-29T07:39:05;7.83;;;4.10;;
59530;SDS011;45349;48.692;8.186;2022-07-29T07:41:32;11.47;;;4.20;;
59530;SDS011;45349;48.692;8.186;2022-07-29T07:43:59;5.67;;;3.63;;
59530;SDS011;45349;48.692;8.186;2022-07-29T07:46:25;8.00;;;3.60;;
59530;SDS011;45349;48.692;8.186;2022-07-29T07:48:52;6.13;;;3.60;;
59530;SDS011;45349;48.692;8.186;2022-07-29T07:51:20;5.50;;;4.20;;
59530;SDS011;45349;48.692;8.186;2022-07-29T07:53:47;5.37;;;3.90;;
59530;SDS011;45349;48.692;8.186;2022-07-29T07:56:15;8.87;;;3.87;;
59530;SDS011;45349;48.692;8.186;2022-07-29T07:58:42;8.43;;;4.30;;
59530;SDS011;45349;48.692;8.186;2022-07-29T08:01:09;8.93;;;4.22;;
59530;SDS011;45349;48.692;8.186;2022-07-29T08:03:36;6.80;;;4.13;;
59530;SDS011;45349;48.692;8.186;2022-07-29T08:06:04;7.07;;;4.10;;
59530;SDS011;45349;48.692;8.186;2022-07-29T08:08:32;7.87;;;4.37;;
59530;SDS011;45349;48.692;8.186;2022-07-29T08:10:59;6.27;;;4.33;;
59530;SDS011;45349;48.692;8.186;2022-07-29T08:13:28;9.07;;;4.30;;
59530;SDS011;45349;48.692;8.186;2022-07-29T08:15:55;8.00;;;4.50;;
59530;SDS011;45349;48.692;8.186;2022-07-29T08:18:24;10.57;;;4.47;;
59530;SDS011;45349;48.692;8.186;2022-07-29T08:20:52;6.67;;;4.37;;
59530;SDS011;45349;48.692;8.186;2022-07-29T08:23:18;4.95;;;4.22;;
59530;SDS011;45349;48.692;8.186;2022-07-29T08:25:47;8.07;;;4.20;;
59530;SDS011;45349;48.692;8.186;2022-07-29T08:28:13;12.17;;;4.93;;
59530;SDS011;45349;48.692;8.186;2022-07-29T08:30:40;4.50;;;4.10;;
59530;SDS011;45349;48.692;8.186;2022-07-29T08:33:07;9.33;;;4.23;;
59530;SDS011;45349;48.692;8.186;2022-07-29T08:35:34;6.47;;;3.87;;
59530;SDS011;45349;48.692;8.186;2022-07-29T08:38:00;8.10;;;4.60;;
59530;SDS011;45349;48.692;8.186;2022-07-29T08:40:28;7.53;;;4.03;;
59530;SDS011;45349;48.692;8.186;2022-07-29T08:42:57;4.43;;;4.00;;
59530;SDS011;45349;48.692;8.186;2022-07-29T08:45:24;8.73;;;4.73;;
59530;SDS011;45349;48.692;8.186;2022-07-29T08:47:51;5.97;;;4.40;;
59530;SDS011;45349;48.692;8.186;2022-07-29T08:50:18;8.77;;;4.80;;
59530;SDS011;45349;48.692;8.186;2022-07-29T08:52:45;6.93;;;4.30;;
59530;SDS011;45349;48.692;8.186;2022-07-29T08:55:14;8.20;;;4.23;;
59530;SDS011;45349;48.692;8.186;2022-07-29T08:57:42;8.03;;;4.30;;
59530;SDS011;45349;48.692;8.186;2022-07-29T09:00:11;8.70;;;4.33;;
59530;SDS011;45349;48.692;8.186;2022-07-29T09:02:40;8.27;;;4.70;;
59530;SDS011;45349;48.692;8.186;2022-07-29T09:05:11;6.83;;;4.20;;
59530;SDS011;45349;48.692;8.186;2022-07-29T09:07:38;8.37;;;4.50;;
59530;SDS011;45349;48.692;8.186;2022-07-29T09:10:07;8.20;;;4.53;;
59530;SDS011;45349;48.692;8.186;2022-07-29T09:12:35;6.55;;;4.05;;
59530;SDS011;45349;48.692;8.186;2022-07-29T09:15:02;6.00;;;3.60;;
59530;SDS011;45349;48.692;8.186;2022-07-29T09:17:43;9.80;;;4.50;;
59530;SDS011;45349;48.692;8.186;2022-07-29T09:20:30;7.60;;;4.30;;
59530;SDS011;45349;48.692;8.186;2022-07-29T09:23:10;10.30;;;4.10;;
59530;SDS011;45349;48.692;8.186;2022-07-29T09:25:38;4.70;;;3.60;;
59530;SDS011;45349;48.692;8.186;2022-07-29T09:28:06;7.63;;;3.80;;
59530;SDS011;45349;48.692;8.186;2022-07-29T09:30:34;7.57;;;4.30;;
59530;SDS011;45349;48.692;8.186;2022-07-29T09:33:03;9.70;;;3.87;;
59530;SDS011;45349;48.692;8.186;2022-07-29T09:35:30;6.60;;;4.10;;
59530;SDS011;45349;48.692;8.186;2022-07-29T09:37:57;6.60;;;4.13;;
59530;SDS011;45349;48.692;8.186;2022-07-29T09:40:36;8.27;;;3.97;;
59530;SDS011;45349;48.692;8.186;2022-07-29T09:43:09;5.53;;;3.20;;
59530;SDS011;45349;48.692;8.186;2022-07-29T09:45:37;7.27;;;3.87;;
59530;SDS011;45349;48.692;8.186;2022-07-29T09:48:14;5.00;;;3.50;;
59530;SDS011;45349;48.692;8.186;2022-07-29T09:51:01;4.70;;;3.53;;
59530;SDS011;45349;48.692;8.186;2022-07-29T09:53:31;6.43;;;3.47;;
59530;SDS011;45349;48.692;8.186;2022-07-29T09:55:59;7.10;;;3.70;;
59530;SDS011;45349;48.692;8.186;2022-07-29T09:58:26;9.67;;;3.37;;
59530;SDS011;45349;48.692;8.186;2022-07-29T10:00:54;4.57;;;3.30;;
59530;SDS011;45349;48.692;8.186;2022-07-29T10:03:22;3.83;;;3.00;;
59530;SDS011;45349;48.692;8.186;2022-07-29T10:06:03;5.30;;;2.97;;
59530;SDS011;45349;48.692;8.186;2022-07-29T10:08:31;6.05;;;3.50;;
59530;SDS011;45349;48.692;8.186;2022-07-29T10:11:08;6.57;;;3.30;;
59530;SDS011;45349;48.692;8.186;2022-07-29T10:13:36;7.63;;;3.60;;
59530;SDS011;45349;48.692;8.186;2022-07-29T10:16:04;9.45;;;3.38;;
59530;SDS011;45349;48.692;8.186;2022-07-29T10:18:33;4.83;;;3.60;;
59530;SDS011;45349;48.692;8.186;2022-07-29T10:21:00;10.23;;;4.23;;
59530;SDS011;45349;48.692;8.186;2022-07-29T10:23:27;7.25;;;4.03;;
59530;SDS011;45349;48.692;8.186;2022-07-29T10:25:54;10.15;;;3.13;;
59530;SDS011;45349;48.692;8.186;2022-07-29T10:28:21;7.23;;;3.60;;
59530;SDS011;45349;48.692;8.186;2022-07-29T10:30:48;4.93;;;3.30;;
59530;SDS011;45349;48.692;8.186;2022-07-29T10:33:21;6.63;;;3.05;;
59530;SDS011;45349;48.692;8.186;2022-07-29T10:36:04;5.73;;;3.00;;
59530;SDS011;45349;48.692;8.186;2022-07-29T10:38:42;5.28;;;2.40;;
59530;SDS011;45349;48.692;8.186;2022-07-29T10:41:32;2.83;;;2.58;;
59530;SDS011;45349;48.692;8.186;2022-07-29T10:44:08;6.60;;;3.03;;
59530;SDS011;45349;48.692;8.186;2022-07-29T10:46:39;7.85;;;2.83;;
59530;SDS011;45349;48.692;8.186;2022-07-29T10:49:10;4.03;;;2.80;;
59530;SDS011;45349;48.692;8.186;2022-07-29T10:51:57;5.20;;;2.78;;
59530;SDS011;45349;48.692;8.186;2022-07-29T10:54:36;5.10;;;2.92;;
59530;SDS011;45349;48.692;8.186;2022-07-29T10:57:25;7.27;;;3.20;;
59530;SDS011;45349;48.692;8.186;2022-07-29T11:02:53;5.50;;;3.10;;
59530;SDS011;45349;48.692;8.186;2022-07-29T11:05:21;6.63;;;3.00;;
59530;SDS011;45349;48.692;8.186;2022-07-29T11:14:02;5.03;;;2.92;;
59530;SDS011;45349;48.692;8.186;2022-07-29T11:19:28;7.03;;;2.83;;
59530;SDS011;45349;48.692;8.186;2022-07-29T11:21:55;4.00;;;2.80;;
59530;SDS011;45349;48.692;8.186;2022-07-29T11:24:25;5.60;;;2.90;;
59530;SDS011;45349;48.692;8.186;2022-07-29T11:27:06;7.90;;;2.80;;
59530;SDS011;45349;48.692;8.186;2022-07-29T11:29:34;4.53;;;3.20;;
59530;SDS011;45349;48.692;8.186;2022-07-29T11:32:08;4.40;;;3.10;;
59530;SDS011;45349;48.692;8.186;2022-07-29T11:34:38;5.85;;;2.83;;
59530;SDS011;45349;48.692;8.186;2022-07-29T11:37:21;4.50;;;2.40;;
59530;SDS011;45349;48.692;8.186;2022-07-29T11:42:38;4.50;;;1.92;;
59530;SDS011;45349;48.692;8.186;2022-07-29T11:45:06;3.88;;;1.80;;
59530;SDS011;45349;48.692;8.186;2022-07-29T11:47:35;5.47;;;2.28;;
59530;SDS011;45349;48.692;8.186;2022-07-29T11:50:04;4.60;;;1.70;;
59530;SDS011;45349;48.692;8.186;2022-07-29T11:52:32;2.53;;;1.50;;
59530;SDS011;45349;48.692;8.186;2022-07-29T11:55:02;3.17;;;1.70;;
59530;SDS011;45349;48.692;8.186;2022-07-29T11:57:35;4.25;;;1.80;;
59530;SDS011;45349;48.692;8.186;2022-07-29T12:00:03;5.78;;;1.55;;
59530;SDS011;45349;48.692;8.186;2022-07-29T12:02:39;2.63;;;1.60;;
59530;SDS011;45349;48.692;8.186;2022-07-29T12:05:08;3.42;;;1.90;;
59530;SDS011;45349;48.692;8.186;2022-07-29T12:07:36;64.10;;;5.15;;
59530;SDS011;45349;48.692;8.186;2022-07-29T12:10:04;5.93;;;2.30;;
59530;SDS011;45349;48.692;8.186;2022-07-29T12:12:33;4.82;;;1.92;;
59530;SDS011;45349;48.692;8.186;2022-07-29T12:15:11;5.47;;;2.20;;
59530;SDS011;45349;48.692;8.186;2022-07-29T12:17:43;2.35;;;2.00;;
59530;SDS011;45349;48.692;8.186;2022-07-29T12:20:10;4.35;;;1.90;;
59530;SDS011;45349;48.692;8.186;2022-07-29T12:22:39;6.65;;;2.53;;
59530;SDS011;45349;48.692;8.186;2022-07-29T12:25:10;6.53;;;2.53;;
59530;SDS011;45349;48.692;8.186;2022-07-29T12:27:41;4.35;;;1.98;;
59530;SDS011;45349;48.692;8.186;2022-07-29T12:30:10;8.55;;;2.10;;
59530;SDS011;45349;48.692;8.186;2022-07-29T12:32:40;7.15;;;1.90;;
59530;SDS011;45349;48.692;8.186;2022-07-29T12:35:09;2.10;;;1.88;;
59530;SDS011;45349;48.692;8.186;2022-07-29T12:37:39;7.32;;;2.42;;
59530;SDS011;45349;48.692;8.186;2022-07-29T12:40:08;5.13;;;2.08;;
59530;SDS011;45349;48.692;8.186;2022-07-29T12:42:36;4.53;;;1.90;;
59530;SDS011;45349;48.692;8.186;2022-07-29T12:45:05;6.53;;;2.00;;
59530;SDS011;45349;48.692;8.186;2022-07-29T12:47:37;9.07;;;2.35;;
59530;SDS011;45349;48.692;8.186;2022-07-29T12:50:17;3.97;;;2.10;;
59530;SDS011;45349;48.692;8.186;2022-07-29T12:52:44;2.92;;;1.77;;
59530;SDS011;45349;48.692;8.186;2022-07-29T12:55:14;5.22;;;2.05;;
59530;SDS011;45349;48.692;8.186;2022-07-29T12:57:44;12.82;;;2.88;;
59530;SDS011;45349;48.692;8.186;2022-07-29T13:00:14;6.50;;;2.45;;
59530;SDS011;45349;48.692;8.186;2022-07-29T13:02:41;6.85;;;1.90;;
59530;SDS011;45349;48.692;8.186;2022-07-29T13:05:09;6.80;;;1.77;;
59530;SDS011;45349;48.692;8.186;2022-07-29T13:07:37;5.57;;;2.00;;
59530;SDS011;45349;48.692;8.186;2022-07-29T13:10:11;5.82;;;2.20;;
59530;SDS011;45349;48.692;8.186;2022-07-29T13:15:30;5.75;;;2.10;;
59530;SDS011;45349;48.692;8.186;2022-07-29T13:17:57;3.60;;;1.92;;
59530;SDS011;45349;48.692;8.186;2022-07-29T13:20:28;6.43;;;2.60;;
59530;SDS011;45349;48.692;8.186;2022-07-29T13:22:56;5.15;;;2.30;;
59530;SDS011;45349;48.692;8.186;2022-07-29T13:25:24;6.65;;;2.03;;
59530;SDS011;45349;48.692;8.186;2022-07-29T13:27:51;8.73;;;1.88;;
59530;SDS011;45349;48.692;8.186;2022-07-29T13:30:19;4.60;;;2.30;;
59530;SDS011;45349;48.692;8.186;2022-07-29T13:32:49;5.28;;;2.22;;
59530;SDS011;45349;48.692;8.186;2022-07-29T13:35:16;3.35;;;1.90;;
59530;SDS011;45349;48.692;8.186;2022-07-29T13:37:43;4.65;;;2.10;;
59530;SDS011;45349;48.692;8.186;2022-07-29T13:40:11;8.65;;;2.30;;
59530;SDS011;45349;48.692;8.186;2022-07-29T13:42:39;11.35;;;2.80;;
59530;SDS011;45349;48.692;8.186;2022-07-29T13:45:07;3.95;;;2.40;;
59530;SDS011;45349;48.692;8.186;2022-07-29T13:47:36;8.25;;;2.47;;
59530;SDS011;45349;48.692;8.186;2022-07-29T13:50:06;9.40;;;2.10;;
59530;SDS011;45349;48.692;8.186;2022-07-29T13:52:35;3.50;;;2.10;;
59530;SDS011;45349;48.692;8.186;2022-07-29T13:55:03;6.82;;;2.50;;
59530;SDS011;45349;48.692;8.186;2022-07-29T13:57:30;4.10;;;2.10;;
59530;SDS011;45349;48.692;8.186;2022-07-29T13:59:58;4.72;;;1.90;;
59530;SDS011;45349;48.692;8.186;2022-07-29T14:02:24;11.82;;;2.33;;
59530;SDS011;45349;48.692;8.186;2022-07-29T14:04:51;3.42;;;1.85;;
59530;SDS011;45349;48.692;8.186;2022-07-29T14:07:20;5.22;;;2.10;;
59530;SDS011;45349;48.692;8.186;2022-07-29T14:10:05;6.07;;;2.00;;
59530;SDS011;45349;48.692;8.186;2022-07-29T14:12:32;5.32;;;1.90;;
59530;SDS011;45349;48.692;8.186;2022-07-29T14:14:59;3.72;;;2.10;;
59530;SDS011;45349;48.692;8.186;2022-07-29T14:17:26;6.53;;;2.00;;
59530;SDS011;45349;48.692;8.186;2022-07-29T14:19:52;5.78;;;2.00;;
59530;SDS011;45349;48.692;8.186;2022-07-29T14:22:21;7.78;;;1.85;;
59530;SDS011;45349;48.692;8.186;2022-07-29T14:24:47;4.70;;;2.15;;
59530;SDS011;45349;48.692;8.186;2022-07-29T14:27:14;3.42;;;2.20;;
59530;SDS011;45349;48.692;8.186;2022-07-29T14:29:41;6.28;;;1.90;;
59530;SDS011;45349;48.692;8.186;2022-07-29T14:32:08;5.13;;;2.13;;
59530;SDS011;45349;48.692;8.186;2022-07-29T14:34:36;2.83;;;2.35;;
59530;SDS011;45349;48.692;8.186;2022-07-29T14:37:03;4.90;;;2.33;;
59530;SDS011;45349;48.692;8.186;2022-07-29T14:39:32;4.95;;;2.20;;
59530;SDS011;45349;48.692;8.186;2022-07-29T14:42:02;3.65;;;2.10;;
59530;SDS011;45349;48.692;8.186;2022-07-29T14:44:29;4.35;;;2.40;;
59530;SDS011;45349;48.692;8.186;2022-07-29T14:46:57;5.45;;;2.35;;
59530;SDS011;45349;48.692;8.186;2022-07-29T14:49:24;5.65;;;2.45;;
59530;SDS011;45349;48.692;8.186;2022-07-29T14:51:51;3.20;;;2.40;;
59530;SDS011;45349;48.692;8.186;2022-07-29T14:54:18;8.93;;;2.33;;
59530;SDS011;45349;48.692;8.186;2022-07-29T14:56:46;8.02;;;2.60;;
59530;SDS011;45349;48.692;8.186;2022-07-29T14:59:14;4.53;;;2.40;;
59530;SDS011;45349;48.692;8.186;2022-07-29T15:01:41;6.05;;;2.22;;
59530;SDS011;45349;48.692;8.186;2022-07-29T15:04:07;4.15;;;2.47;;
59530;SDS011;45349;48.692;8.186;2022-07-29T15:06:34;6.70;;;2.50;;
59530;SDS011;45349;48.692;8.186;2022-07-29T15:09:01;6.43;;;2.72;;
59530;SDS011;45349;48.692;8.186;2022-07-29T15:11:28;6.25;;;2.75;;
59530;SDS011;45349;48.692;8.186;2022-07-29T15:13:56;3.72;;;2.88;;
59530;SDS011;45349;48.692;8.186;2022-07-29T15:16:23;7.60;;;3.10;;
59530;SDS011;45349;48.692;8.186;2022-07-29T15:18:50;4.75;;;2.45;;